Aérodrome :
LOGIN :

S'inscrire | Disclaimer

   EN    FR    IT 

 










Légende :    VFR   VFR Marginal   IFR   IFR Intensif   IFR Très Intensif
Visi : 
Plafond : 
>= 8 km
>= 3000ft
5 à 8 km
1000 à 3000 ft
1500m à 5 km
500 à 1000 ft
800 à 1500m
200 à 500 ft
< 800m
< 200 ft
Symboles :   Orages  Brouillard  Fortes neiges  Fortes précipitations  Vent > 20 kt
SIGMETs :   Divers  Orages  Givrage  Turbulence  Onde Orograph.  Cendres Volcan.






- Altitude de l'aérodrome : 13 ft
- Code IATA : CEQ


LFMD - Cannes Mandelieu

DERNIER METAR :
  • 101030Z AUTO VRB03KT 9000 NSC 14/02 Q1017 NOSIG

METARs EXPIRÉS :
  • 101000Z AUTO VRB03KT CAVOK 13/01 Q1017 NOSIG
  • 100930Z AUTO 33003KT 290V020 CAVOK 11/00 Q1017 NOSIG
  • 100900Z AUTO 35004KT 300V020 CAVOK 09/00 Q1016 NOSIG
  • 100830Z AUTO 36005KT 300V040 CAVOK 07/00 Q1016 NOSIG
  • 100800Z AUTO 35004KT 320V050 CAVOK 06/M01 Q1016 NOSIG

TAF TAF LFMD
Valide du 10 à 09h jusqu'au 11 à 09h UTC


100800Z 1009/1109 VRB02KT CAVOK
TEMPO 1011/1018 28010KT
ATIS : +33 4 93 48 73 23



MET'MAP, la Météo Aéronautique d'un coup d'oeil ! - Copyright ORBIFLY Décembre 2007 - Disclaimer

ORBIFLY MET'MAP TEAM :

Programmation & Développement : Alexandra Zaïnal
Sur une idée originale de : Baudouin d'Aumeries
Assistance à la programmation : Marc-Olivier Méhu
Soutien technique & logistique : Manuel Goepfert

Contact : metmap@orbifly.com




SOURCES & CREDITS :

   NOAA